Time;durP1;ratioP1;P1;durP2;ratioP2;P2;SDS_P1;SDS_P2;PMS_P1;PMS_P2;Temp;Humidity;BMP_temperature;BMP_pressure;BME280_temperature;BME280_humidity;BME280_pressure;Samples;Min_cycle;Max_cycle;Signal;HPM_P1;HPM_P2
2022/10/08 00:01:01;;;;;;;;;7.75;4.25;;;;;21.34;39.43;101570.28;5056430;28;45339;-62
2022/10/08 00:03:29;;;;;;;;;5.50;4.00;;;;;21.33;39.16;101568.56;5056562;28;46324;-62
2022/10/08 00:05:59;;;;;;;;;5.00;3.00;;;;;21.34;39.48;101566.78;5055022;28;45922;-63
2022/10/08 00:08:26;;;;;;;;;8.00;3.00;;;;;21.34;39.48;101574.69;5056819;28;45243;-64
2022/10/08 00:10:56;;;;;;;;;3.50;3.25;;;;;21.33;39.24;101559.81;5056636;28;45331;-60
2022/10/08 00:13:23;;;;;;;;;4.75;3.75;;;;;21.33;39.57;101563.28;5056595;28;46681;-60
2022/10/08 00:15:49;;;;;;;;;5.50;4.25;;;;;21.30;39.16;101559.03;5038051;28;45867;-62
2022/10/08 00:18:14;;;;;;;;;3.00;3.00;;;;;21.33;39.51;101567.72;5056615;28;45275;-62
2022/10/08 00:20:40;;;;;;;;;4.75;2.50;;;;;21.31;39.17;101555.47;5056678;28;45415;-63
2022/10/08 00:23:05;;;;;;;;;3.00;3.00;;;;;21.30;39.32;101564.31;5056799;28;46387;-62
2022/10/08 00:25:30;;;;;;;;;2.50;2.50;;;;;21.31;39.24;101566.00;5056376;28;45357;-61
2022/10/08 00:27:56;;;;;;;;;3.50;2.00;;;;;21.31;39.19;101565.16;5056135;28;45953;-62
2022/10/08 00:30:21;;;;;;;;;3.00;3.00;;;;;21.29;39.65;101567.88;5059659;28;45521;-59
2022/10/08 00:32:46;;;;;;;;;3.50;3.50;;;;;21.30;39.49;101569.56;5065405;28;47480;-59
2022/10/08 00:35:12;;;;;;;;;4.00;3.25;;;;;21.30;39.49;101569.56;5057487;28;45419;-63
2022/10/08 00:37:37;;;;;;;;;2.00;2.00;;;;;21.30;39.37;101576.63;5038398;28;49418;-57
2022/10/08 00:40:03;;;;;;;;;3.50;3.50;;;;;21.29;39.79;101578.41;5056932;28;45284;-62
2022/10/08 00:42:28;;;;;;;;;3.25;2.00;;;;;21.29;39.47;101567.88;5038516;28;46464;-58
2022/10/08 00:44:57;;;;;;;;;4.00;4.00;;;;;21.29;39.82;101573.13;5056058;28;45399;-59
2022/10/08 00:47:32;;;;;;;;;4.00;4.00;;;;;21.29;39.67;101567.88;5056427;28;45466;-58
2022/10/08 00:50:05;;;;;;;;;1.00;1.00;;;;;21.29;39.65;101573.13;5056415;28;45784;-60
2022/10/08 00:52:36;;;;;;;;;2.75;2.75;;;;;21.29;39.80;101575.78;5054849;28;47793;-59
2022/10/08 00:55:05;;;;;;;;;3.00;3.00;;;;;21.29;39.79;101582.81;5058304;28;45265;-62
2022/10/08 00:57:32;;;;;;;;;5.75;4.00;;;;;21.29;39.59;101583.69;5059898;28;45353;-59
2022/10/08 00:59:57;;;;;;;;;3.50;3.00;;;;;21.27;39.80;101577.63;5059323;28;45394;-62
2022/10/08 01:02:23;;;;;;;;;3.00;3.00;;;;;21.28;39.80;101576.69;5059699;28;45966;-62
2022/10/08 01:04:48;;;;;;;;;4.00;2.25;;;;;21.28;39.52;101575.81;5059460;28;45908;-63
2022/10/08 01:07:32;;;;;;;;;4.00;3.00;;;;;21.28;39.89;101571.44;5041446;28;45401;-63
2022/10/08 01:10:02;;;;;;;;;3.50;2.75;;;;;21.27;39.72;101574.97;5062367;28;45922;-63
2022/10/08 01:12:51;;;;;;;;;2.25;2.00;;;;;21.27;39.74;101577.63;5074177;28;45697;-59
2022/10/08 01:15:35;;;;;;;;;2.25;2.25;;;;;21.27;39.72;101572.34;5046677;28;45996;-60
2022/10/08 01:18:06;;;;;;;;;6.75;2.75;;;;;21.27;39.48;101574.97;5059228;28;45337;-57
2022/10/08 01:21:11;;;;;;;;;2.25;2.25;;;;;21.27;39.72;101577.63;5060214;28;45542;-58
2022/10/08 01:23:55;;;;;;;;;2.50;2.25;;;;;21.26;39.97;101572.44;5059634;28;46696;-59
2022/10/08 01:26:49;;;;;;;;;6.00;3.00;;;;;21.26;40.05;101575.91;5059547;28;45839;-57
2022/10/08 01:29:42;;;;;;;;;5.00;2.75;;;;;21.26;40.03;101568.00;4995278;28;45303;-58
2022/10/08 01:32:14;;;;;;;;;6.25;3.75;;;;;21.23;39.70;101562.88;5059709;28;45466;-58
2022/10/08 01:34:45;;;;;;;;;2.25;1.25;;;;;21.25;39.93;101560.16;5058586;28;46884;-60
2022/10/08 01:37:21;;;;;;;;;3.00;2.00;;;;;21.24;39.68;101554.03;5059146;28;45693;-63
2022/10/08 01:39:51;;;;;;;;;3.50;3.50;;;;;21.24;39.56;101561.94;5059712;28;45254;-61
2022/10/08 01:42:22;;;;;;;;;2.50;2.50;;;;;21.24;39.59;101563.72;5060274;28;45620;-58
2022/10/08 01:44:52;;;;;;;;;4.50;3.00;;;;;21.23;39.75;101560.22;5059477;28;46259;-58
2022/10/08 01:47:22;;;;;;;;;3.00;3.00;;;;;21.23;39.66;101562.88;5060066;28;45357;-59
2022/10/08 01:49:53;;;;;;;;;3.50;3.25;;;;;21.23;39.55;101562.88;5061015;28;45399;-59
2022/10/08 01:52:32;;;;;;;;;2.00;2.00;;;;;21.23;40.27;101562.88;5081704;27;45371;-60
2022/10/08 01:55:03;;;;;;;;;3.00;3.00;;;;;21.23;39.75;101564.66;5083449;27;47292;-60
2022/10/08 01:57:32;;;;;;;;;2.50;2.50;;;;;21.23;39.82;101552.31;5083311;28;45399;-60
2022/10/08 02:00:09;;;;;;;;;3.50;1.00;;;;;21.23;40.03;101557.59;5077514;28;45394;-58
2022/10/08 02:02:35;;;;;;;;;4.00;2.50;;;;;21.22;39.77;101544.50;5061165;28;45358;-63
2022/10/08 02:05:02;;;;;;;;;2.75;2.00;;;;;21.23;39.99;101544.41;5074913;28;45458;-60
2022/10/08 02:07:31;;;;;;;;;3.00;1.50;;;;;21.22;39.70;101550.59;5075369;28;45260;-62
2022/10/08 02:10:09;;;;;;;;;3.75;2.25;;;;;21.23;39.63;101547.03;5061268;28;45403;-61
2022/10/08 02:12:35;;;;;;;;;2.75;2.00;;;;;21.23;39.69;101547.03;5059864;28;45272;-62
2022/10/08 02:15:03;;;;;;;;;4.00;2.75;;;;;21.21;39.92;101548.94;5058753;28;47288;-61
2022/10/08 02:17:39;;;;;;;;;2.75;2.00;;;;;21.22;40.16;101549.75;5058872;28;45767;-63
2022/10/08 02:20:24;;;;;;;;;2.50;2.50;;;;;21.21;40.12;101554.19;5058781;28;45320;-62
2022/10/08 02:23:01;;;;;;;;;2.00;2.00;;;;;21.22;40.15;101552.41;5075312;28;44816;-62
2022/10/08 02:25:42;;;;;;;;;2.50;2.00;;;;;21.20;39.80;101555.13;5073837;28;46385;-60
2022/10/08 02:28:26;;;;;;;;;3.50;2.00;;;;;21.22;39.67;101549.75;5073446;28;45414;-60
2022/10/08 02:31:02;;;;;;;;;3.00;3.00;;;;;21.21;39.85;101558.59;5066445;28;45505;-59
2022/10/08 02:33:44;;;;;;;;;2.75;2.00;;;;;21.20;39.71;101549.84;5076614;28;45330;-62
2022/10/08 02:36:14;;;;;;;;;3.00;3.00;;;;;21.19;40.18;101545.50;5059414;28;46647;-63
2022/10/08 02:38:51;;;;;;;;;2.00;2.00;;;;;21.19;39.78;101548.13;5058434;28;45352;-62
2022/10/08 02:41:19;;;;;;;;;3.00;3.00;;;;;21.20;40.38;101547.22;5058336;28;45216;-62
2022/10/08 02:43:46;;;;;;;;;4.00;1.75;;;;;21.20;40.16;101544.56;5040411;28;45621;-62
2022/10/08 02:46:22;;;;;;;;;4.50;2.00;;;;;21.19;40.15;101545.50;5058365;28;46934;-63
2022/10/08 02:49:17;;;;;;;;;2.00;2.00;;;;;21.19;40.15;101545.50;5063201;28;45429;-61
2022/10/08 02:51:48;;;;;;;;;2.00;2.00;;;;;21.19;40.36;101550.78;5061004;28;45458;-62
2022/10/08 02:54:17;;;;;;;;;2.00;2.00;;;;;21.19;40.05;101550.78;5060970;28;45365;-58
2022/10/08 02:56:49;;;;;;;;;4.00;1.25;;;;;21.17;40.23;101548.19;5057594;28;46143;-62
2022/10/08 02:59:16;;;;;;;;;2.00;2.00;;;;;21.17;40.24;101547.34;5057974;28;45449;-61
2022/10/08 03:01:56;;;;;;;;;2.75;1.00;;;;;21.17;40.13;101550.81;5057843;28;45327;-62
2022/10/08 03:04:35;;;;;;;;;1.50;1.50;;;;;21.17;40.05;101548.19;5058324;28;45394;-58
2022/10/08 03:07:01;;;;;;;;;1.50;1.00;;;;;21.18;40.24;101549.06;5057428;28;47443;-63
2022/10/08 03:09:37;;;;;;;;;5.75;2.00;;;;;21.17;40.39;101550.81;5057796;28;45586;-61
2022/10/08 03:12:04;;;;;;;;;2.00;2.00;;;;;21.17;40.10;101553.47;5058048;28;45426;-57
2022/10/08 03:14:35;;;;;;;;;6.00;1.00;;;;;21.18;40.50;101556.97;5058145;28;45498;-62
2022/10/08 03:17:00;;;;;;;;;2.00;2.00;;;;;21.16;40.42;101551.78;5038834;28;47223;-60
2022/10/08 03:19:26;;;;;;;;;3.00;2.00;;;;;21.17;40.41;101555.25;5057595;28;45351;-63
2022/10/08 03:21:55;;;;;;;;;2.00;2.00;;;;;21.17;40.35;101555.25;5058765;28;45832;-64
2022/10/08 03:24:21;;;;;;;;;2.00;2.00;;;;;21.17;40.36;101555.25;5058302;28;45348;-62
2022/10/08 03:26:46;;;;;;;;;2.75;1.75;;;;;21.16;40.74;101554.41;5058751;28;45359;-58
2022/10/08 03:29:11;;;;;;;;;1.75;1.75;;;;;21.17;40.55;101563.16;5057418;28;45292;-63
2022/10/08 03:31:37;;;;;;;;;1.75;1.50;;;;;21.17;40.63;101565.78;5040113;28;45205;-58
2022/10/08 03:34:03;;;;;;;;;2.00;2.00;;;;;21.18;40.12;101570.16;5060181;28;45297;-64
2022/10/08 03:36:28;;;;;;;;;0.00;0.00;;;;;21.17;40.28;101571.06;5062511;28;46327;-64
2022/10/08 03:38:54;;;;;;;;;2.25;1.25;;;;;21.17;40.51;101569.28;5059262;28;45495;-64
2022/10/08 03:41:21;;;;;;;;;3.00;2.00;;;;;21.16;40.59;101556.19;5066874;28;45419;-63
2022/10/08 03:43:47;;;;;;;;;2.00;2.00;;;;;21.15;40.33;101579.06;5061011;28;45525;-64
2022/10/08 03:46:13;;;;;;;;;1.00;1.00;;;;;21.16;40.33;101583.41;5072294;28;46543;-62
2022/10/08 03:48:40;;;;;;;;;1.50;1.50;;;;;21.16;40.46;101587.81;5069691;28;45229;-62
2022/10/08 03:51:12;;;;;;;;;1.50;1.00;;;;;21.15;40.37;101586.97;5066630;28;45308;-62
2022/10/08 03:53:39;;;;;;;;;0.75;0.75;;;;;21.16;40.77;101595.72;5068318;28;45353;-59
2022/10/08 03:56:08;;;;;;;;;2.75;2.00;;;;;21.16;40.52;101587.81;5059257;28;46686;-60
2022/10/08 03:58:34;;;;;;;;;1.75;1.75;;;;;21.16;40.90;101593.09;5061078;28;45508;-58
2022/10/08 04:01:02;;;;;;;;;1.00;1.00;;;;;21.15;40.47;101596.63;5058036;28;45441;-60
2022/10/08 04:03:28;;;;;;;;;1.50;1.50;;;;;21.15;40.64;101591.38;5058085;28;45362;-58
2022/10/08 04:05:54;;;;;;;;;2.00;0.00;;;;;21.15;40.57;101591.38;5059592;28;45223;-59
2022/10/08 04:08:20;;;;;;;;;1.50;1.50;;;;;21.15;40.66;101597.50;5058557;28;45247;-59
2022/10/08 04:10:45;;;;;;;;;2.00;1.00;;;;;21.15;40.54;101596.63;5058042;28;45237;-57
2022/10/08 04:13:11;;;;;;;;;1.75;1.75;;;;;21.15;40.76;101604.53;5058058;28;45451;-60
2022/10/08 04:15:36;;;;;;;;;2.75;1.00;;;;;21.13;40.72;101599.34;5056924;28;46326;-59
2022/10/08 04:18:02;;;;;;;;;1.00;1.00;;;;;21.14;40.33;101601.06;5057832;28;45363;-58
2022/10/08 04:20:27;;;;;;;;;1.50;1.00;;;;;21.13;40.39;101609.91;5060593;28;45383;-63
2022/10/08 04:22:53;;;;;;;;;3.00;1.25;;;;;21.14;40.85;101616.00;5059079;28;45319;-63
2022/10/08 04:25:18;;;;;;;;;1.25;1.00;;;;;21.15;41.08;101620.38;5058175;28;45513;-60
2022/10/08 04:27:47;;;;;;;;;1.00;1.00;;;;;21.12;41.00;101618.72;5064209;28;45516;-60
2022/10/08 04:30:14;;;;;;;;;1.00;1.00;;;;;21.14;40.67;101622.16;5064213;28;45478;-58
2022/10/08 04:32:39;;;;;;;;;2.50;1.00;;;;;21.13;40.85;101620.44;5060358;28;45307;-59
2022/10/08 04:35:05;;;;;;;;;2.50;1.00;;;;;21.14;40.75;101622.16;5062053;28;45154;-60
2022/10/08 04:37:30;;;;;;;;;1.50;1.50;;;;;21.14;41.31;101627.44;5069959;28;45158;-59
2022/10/08 04:39:55;;;;;;;;;2.25;2.00;;;;;21.13;40.89;101631.00;5072338;28;44774;-58
2022/10/08 04:42:21;;;;;;;;;1.00;1.00;;;;;21.13;41.34;101631.00;5062102;28;44848;-61
2022/10/08 04:44:46;;;;;;;;;1.00;1.00;;;;;21.13;40.77;101631.00;5076660;28;45323;-57
2022/10/08 04:47:11;;;;;;;;;1.25;1.25;;;;;21.13;40.99;101632.75;5075703;28;51210;-60
2022/10/08 04:49:37;;;;;;;;;1.00;1.00;;;;;21.13;40.98;101635.38;5077242;28;44771;-60
2022/10/08 04:52:02;;;;;;;;;2.00;1.00;;;;;21.12;40.95;101638.94;5074898;28;44865;-60
2022/10/08 04:54:27;;;;;;;;;4.75;2.00;;;;;21.13;40.85;101648.56;5075185;28;45252;-62
2022/10/08 04:56:53;;;;;;;;;4.00;1.00;;;;;21.13;41.16;101645.94;5077438;28;50167;-62
2022/10/08 04:59:18;;;;;;;;;2.25;1.00;;;;;21.12;41.20;101636.31;5076212;28;45263;-61
2022/10/08 05:01:43;;;;;;;;;2.00;1.00;;;;;21.13;41.31;101643.28;5067253;28;50022;-58
2022/10/08 05:04:08;;;;;;;;;1.75;1.00;;;;;21.13;40.92;101643.28;5062446;28;45367;-58
2022/10/08 05:06:34;;;;;;;;;1.00;1.00;;;;;21.13;41.45;101641.53;5075101;28;45252;-60
2022/10/08 05:09:02;;;;;;;;;1.00;1.00;;;;;21.13;41.16;101638.03;5065005;28;45391;-64
2022/10/08 05:11:28;;;;;;;;;1.00;1.00;;;;;21.12;40.74;101650.38;5070737;28;44953;-61
2022/10/08 05:13:55;;;;;;;;;1.75;1.00;;;;;21.13;41.44;101651.19;5069223;28;45490;-66
2022/10/08 05:16:21;;;;;;;;;2.25;1.00;;;;;21.12;41.21;101646.84;5069842;28;45810;-63
2022/10/08 05:18:47;;;;;;;;;1.00;1.00;;;;;21.11;41.51;101648.66;5064310;28;45315;-62
2022/10/08 05:21:18;;;;;;;;;3.00;1.00;;;;;21.12;41.12;101652.13;5056603;28;45395;-66
2022/10/08 05:23:44;;;;;;;;;1.00;1.00;;;;;21.12;41.50;101655.63;5057295;28;46690;-63
2022/10/08 05:26:24;;;;;;;;;1.00;1.00;;;;;21.12;41.27;101657.41;5056442;28;45249;-63
2022/10/08 05:28:53;;;;;;;;;1.00;1.00;;;;;21.13;41.51;101669.66;5056393;28;45445;-64
2022/10/08 05:31:18;;;;;;;;;2.00;1.00;;;;;21.12;41.81;101660.03;5056865;28;45521;-61
2022/10/08 05:33:44;;;;;;;;;3.00;2.00;;;;;21.12;41.83;101665.31;5068956;28;46408;-63
2022/10/08 05:36:24;;;;;;;;;3.50;2.50;;;;;21.10;42.11;101667.19;5076228;28;44690;-60
2022/10/08 05:38:50;;;;;;;;;1.50;1.50;;;;;21.10;42.02;101667.19;5061154;28;45518;-64
2022/10/08 05:41:21;;;;;;;;;1.00;1.00;;;;;21.09;41.67;101676.00;5060383;28;45557;-61
2022/10/08 05:43:47;;;;;;;;;3.00;2.00;;;;;21.09;41.68;101676.00;5058953;28;46266;-65
2022/10/08 05:46:14;;;;;;;;;2.25;1.00;;;;;21.07;41.87;101677.84;5059268;28;45319;-63
2022/10/08 05:48:40;;;;;;;;;1.00;1.00;;;;;21.07;41.90;101680.50;5059131;28;45318;-61
2022/10/08 05:51:11;;;;;;;;;2.00;2.00;;;;;21.07;41.86;101683.13;5060111;28;45339;-63
2022/10/08 05:53:39;;;;;;;;;3.00;1.00;;;;;21.05;42.13;101677.94;5060147;28;46202;-59
2022/10/08 05:56:07;;;;;;;;;3.25;1.00;;;;;21.03;42.28;101677.13;5059046;28;45406;-64
2022/10/08 05:58:41;;;;;;;;;0.50;0.50;;;;;21.05;41.91;101684.97;5059824;28;45333;-59
2022/10/08 06:01:12;;;;;;;;;1.00;1.00;;;;;21.03;42.32;101676.25;5066532;28;45355;-61
2022/10/08 06:03:37;;;;;;;;;1.00;1.00;;;;;21.01;42.19;101679.81;5065611;28;47479;-62
2022/10/08 06:06:08;;;;;;;;;3.50;1.00;;;;;21.00;41.93;101680.75;5065814;28;45339;-64
2022/10/08 06:08:37;;;;;;;;;1.00;1.00;;;;;21.01;42.31;101686.88;5066230;28;45335;-59
2022/10/08 06:11:04;;;;;;;;;1.00;0.00;;;;;20.99;42.10;101697.50;5063328;28;45761;-62
2022/10/08 06:13:31;;;;;;;;;1.75;1.00;;;;;20.99;42.26;101694.00;5060951;28;46482;-59
2022/10/08 06:16:06;;;;;;;;;3.50;1.00;;;;;20.99;42.32;101699.25;5059429;28;45798;-65
2022/10/08 06:18:34;;;;;;;;;1.00;1.00;;;;;20.98;42.50;101698.44;5059190;28;45308;-64
2022/10/08 06:21:05;;;;;;;;;2.50;2.00;;;;;20.97;42.29;101696.72;5058907;28;45729;-61
2022/10/08 06:23:31;;;;;;;;;1.25;1.25;;;;;20.97;42.52;101694.06;5059010;28;45520;-64
2022/10/08 06:26:01;;;;;;;;;3.00;1.00;;;;;20.98;42.58;101708.09;5058301;28;45396;-60
2022/10/08 06:28:26;;;;;;;;;3.00;2.00;;;;;20.95;42.43;101714.38;5058272;28;45332;-64
2022/10/08 06:30:52;;;;;;;;;2.00;1.00;;;;;20.95;42.50;101719.63;5061477;28;45322;-64
2022/10/08 06:33:17;;;;;;;;;1.00;1.00;;;;;20.95;42.59;101727.53;5072352;28;45478;-59
2022/10/08 06:35:42;;;;;;;;;3.25;1.50;;;;;20.94;42.46;101727.63;5061122;28;56101;-62
2022/10/08 06:38:08;;;;;;;;;5.25;2.25;;;;;20.95;42.82;101727.53;5059121;28;45261;-63
2022/10/08 06:40:38;;;;;;;;;3.00;2.00;;;;;20.95;42.42;101734.56;5059746;28;45197;-63
2022/10/08 06:43:16;;;;;;;;;2.50;2.50;;;;;20.93;42.62;101734.66;5060003;28;46467;-61
2022/10/08 06:45:44;;;;;;;;;1.50;1.50;;;;;20.93;42.70;101739.91;5061067;28;45847;-62
2022/10/08 06:48:11;;;;;;;;;3.00;1.25;;;;;20.92;42.77;101729.47;5069985;28;45321;-57
2022/10/08 06:50:36;;;;;;;;;0.00;0.00;;;;;20.93;42.77;101734.66;5075472;28;45333;-58
2022/10/08 06:53:04;;;;;;;;;2.00;1.25;;;;;20.93;42.90;101742.56;5061129;28;45858;-58
2022/10/08 06:55:30;;;;;;;;;2.75;2.75;;;;;20.92;42.88;101748.75;5064040;28;45391;-60
2022/10/08 06:57:56;;;;;;;;;3.25;2.00;;;;;20.93;42.92;101752.25;5080532;28;44691;-58
2022/10/08 07:00:21;;;;;;;;;2.75;1.50;;;;;20.93;42.65;101760.16;5080557;28;45221;-58
2022/10/08 07:02:46;;;;;;;;;1.00;1.00;;;;;20.92;43.07;101764.56;5075459;27;45441;-64
2022/10/08 07:05:12;;;;;;;;;3.25;1.00;;;;;20.92;43.20;101761.91;5059854;28;45366;-58
2022/10/08 07:07:37;;;;;;;;;3.00;1.25;;;;;20.90;42.48;101755.84;5059882;28;45293;-60
2022/10/08 07:10:03;;;;;;;;;1.50;1.00;;;;;20.92;42.72;101766.34;5059239;28;45151;-59
2022/10/08 07:12:29;;;;;;;;;1.75;1.50;;;;;20.90;43.04;101769.03;5058683;28;45464;-59
2022/10/08 07:14:54;;;;;;;;;1.00;1.00;;;;;20.90;42.75;101774.28;5058614;28;45379;-64
2022/10/08 07:17:20;;;;;;;;;1.75;1.75;;;;;20.89;43.02;101775.22;5058326;28;50272;-61
2022/10/08 07:19:45;;;;;;;;;2.75;2.00;;;;;20.91;43.39;101783.06;5058346;28;45444;-64
2022/10/08 07:22:10;;;;;;;;;2.00;2.00;;;;;20.88;43.06;101778.81;5040722;28;45328;-63
2022/10/08 07:24:35;;;;;;;;;2.00;2.00;;;;;20.91;43.08;101783.91;5075112;28;45381;-60
2022/10/08 07:27:01;;;;;;;;;1.25;1.25;;;;;20.91;43.32;101786.56;5065164;28;45672;-65
2022/10/08 07:29:26;;;;;;;;;1.75;1.75;;;;;20.91;43.05;101783.06;5059077;28;45652;-61
2022/10/08 07:31:52;;;;;;;;;2.50;2.00;;;;;20.91;42.85;101797.09;5058022;28;46343;-62
2022/10/08 07:34:26;;;;;;;;;1.00;1.00;;;;;20.91;42.98;101799.72;5060027;28;45300;-64
2022/10/08 07:36:52;;;;;;;;;2.50;2.00;;;;;20.92;43.40;101798.81;5058979;28;45437;-63
2022/10/08 07:39:21;;;;;;;;;4.50;1.50;;;;;20.92;42.92;101805.88;5058571;28;45625;-60
2022/10/08 07:41:48;;;;;;;;;1.50;1.50;;;;;20.91;43.06;101807.63;5058619;28;46161;-60
2022/10/08 07:44:15;;;;;;;;;2.50;2.50;;;;;20.92;43.03;101806.72;5058525;28;45473;-61
2022/10/08 07:46:43;;;;;;;;;3.00;1.25;;;;;20.93;42.92;101818.13;5058569;28;45347;-61
2022/10/08 07:49:08;;;;;;;;;3.00;0.25;;;;;20.93;43.44;101813.72;5060100;28;45330;-59
2022/10/08 07:51:34;;;;;;;;;1.00;1.00;;;;;20.93;43.22;101818.13;5073055;28;47169;-59
2022/10/08 07:54:02;;;;;;;;;2.50;2.50;;;;;20.93;43.09;101826.88;5062269;28;45233;-63
2022/10/08 07:56:27;;;;;;;;;1.25;1.00;;;;;20.93;42.89;101823.41;5058723;28;45447;-60
2022/10/08 07:58:52;;;;;;;;;1.75;1.75;;;;;20.92;43.31;101827.81;5060998;28;45669;-64
2022/10/08 08:01:21;;;;;;;;;2.00;1.75;;;;;20.94;42.96;101835.66;5066295;28;45578;-60
2022/10/08 08:03:54;;;;;;;;;2.50;2.50;;;;;20.93;43.27;101839.22;5058942;28;45653;-64
2022/10/08 08:06:20;;;;;;;;;1.25;1.25;;;;;20.93;43.24;101841.84;5060170;28;44760;-63
2022/10/08 08:08:46;;;;;;;;;3.00;2.00;;;;;20.93;42.94;101845.31;5066543;28;45389;-62
2022/10/08 08:11:13;;;;;;;;;2.75;1.25;;;;;20.94;43.58;101835.66;5072740;28;45355;-67
2022/10/08 08:13:41;;;;;;;;;3.75;1.00;;;;;20.94;43.31;101843.56;5073785;28;45489;-60
2022/10/08 08:16:11;;;;;;;;;2.00;2.00;;;;;20.94;43.46;101847.03;5071741;28;45730;-64
2022/10/08 08:18:39;;;;;;;;;1.25;1.25;;;;;20.95;43.14;101854.03;5071625;28;45380;-66
2022/10/08 08:21:07;;;;;;;;;4.00;1.00;;;;;20.95;42.99;101861.94;5069946;28;46264;-62
2022/10/08 08:23:55;;;;;;;;;3.25;1.50;;;;;20.96;43.20;101865.41;5047356;28;45238;-66
2022/10/08 08:26:31;;;;;;;;;2.00;2.00;;;;;20.97;43.19;101868.00;5057347;28;45386;-62
2022/10/08 08:28:59;;;;;;;;;4.25;2.75;;;;;20.98;43.42;101864.47;5057075;28;45458;-64
2022/10/08 08:31:26;;;;;;;;;2.00;2.00;;;;;20.99;43.58;101870.56;5057330;28;45333;-66
2022/10/08 08:33:54;;;;;;;;;5.25;2.00;;;;;21.00;43.86;101874.94;5056929;28;46174;-64
2022/10/08 08:36:24;;;;;;;;;2.00;2.00;;;;;21.01;43.29;101879.28;5057776;28;45421;-59
2022/10/08 08:38:50;;;;;;;;;2.75;2.75;;;;;21.00;43.76;101875.78;5056691;28;45377;-66
2022/10/08 08:41:29;;;;;;;;;5.25;3.00;;;;;21.03;43.64;101888.00;5057403;28;45517;-62
2022/10/08 08:44:07;;;;;;;;;2.00;2.00;;;;;21.03;43.69;101887.13;5059223;28;45284;-68
2022/10/08 08:46:39;;;;;;;;;1.00;1.00;;;;;21.04;43.83;101888.84;5071451;28;45303;-68
2022/10/08 08:49:23;;;;;;;;;6.00;1.25;;;;;21.04;43.57;101889.72;5063310;28;45929;-64
2022/10/08 08:51:48;;;;;;;;;2.00;2.00;;;;;21.04;43.43;101894.97;5055899;28;46540;-63
2022/10/08 08:54:14;;;;;;;;;5.50;3.50;;;;;21.04;43.85;101900.25;5056127;28;45524;-64
2022/10/08 08:56:40;;;;;;;;;2.25;2.00;;;;;21.05;43.10;101901.09;5056417;28;45386;-62
2022/10/08 08:59:22;;;;;;;;;1.75;1.75;;;;;21.05;43.54;101898.47;5056814;28;45569;-63
2022/10/08 09:01:48;;;;;;;;;2.50;2.00;;;;;21.04;43.69;101894.09;5055700;28;46531;-63
2022/10/08 09:04:32;;;;;;;;;4.25;4.25;;;;;21.05;43.30;101906.38;5060326;28;45682;-60
2022/10/08 09:07:00;;;;;;;;;3.25;2.00;;;;;21.05;43.18;101901.09;5058750;28;45819;-64
2022/10/08 09:09:37;;;;;;;;;3.00;1.75;;;;;21.04;43.30;101905.53;5060243;28;45586;-56
2022/10/08 09:12:25;;;;;;;;;3.25;1.50;;;;;21.05;43.70;101907.25;5043831;28;46045;-62
2022/10/08 09:14:53;;;;;;;;;2.00;2.00;;;;;21.06;43.47;101913.34;5058126;28;45186;-63
2022/10/08 09:17:38;;;;;;;;;3.75;3.00;;;;;21.05;43.71;101912.50;5043711;28;45466;-63
2022/10/08 09:20:07;;;;;;;;;3.50;2.00;;;;;21.06;43.70;101914.19;5061845;28;45434;-68
2022/10/08 09:22:38;;;;;;;;;3.25;2.00;;;;;21.08;43.34;101916.78;5042250;28;47042;-60
2022/10/08 09:25:06;;;;;;;;;2.00;2.00;;;;;21.09;43.29;101914.09;5059641;28;45807;-62
2022/10/08 09:27:50;;;;;;;;;3.00;2.00;;;;;21.10;43.39;101912.31;5060369;28;45342;-63
2022/10/08 09:30:32;;;;;;;;;3.00;3.00;;;;;21.10;43.68;101917.59;5060066;28;45417;-62
2022/10/08 09:33:01;;;;;;;;;3.50;2.50;;;;;21.10;43.28;101923.72;5058488;28;45635;-64
2022/10/08 09:35:26;;;;;;;;;4.00;2.00;;;;;21.09;43.31;101934.31;5060316;28;45750;-62
2022/10/08 09:37:54;;;;;;;;;4.00;2.75;;;;;21.08;43.28;101928.19;5059886;28;45846;-61
2022/10/08 09:40:22;;;;;;;;;2.00;2.00;;;;;21.07;43.00;101934.38;5060349;28;45353;-63
2022/10/08 09:43:10;;;;;;;;;5.50;3.00;;;;;21.03;42.85;101924.88;5060775;28;45290;-63
2022/10/08 09:45:43;;;;;;;;;3.25;3.00;;;;;21.05;42.88;101940.63;5060393;28;45371;-63
2022/10/08 09:48:15;;;;;;;;;2.00;2.00;;;;;21.03;43.00;101939.81;5060078;28;45416;-64
2022/10/08 09:50:52;;;;;;;;;2.75;2.00;;;;;21.03;42.71;101942.47;5060042;28;45252;-64
2022/10/08 09:53:19;;;;;;;;;2.25;2.00;;;;;21.00;42.81;101938.19;5059667;28;46542;-63
2022/10/08 09:55:57;;;;;;;;;4.50;2.25;;;;;20.99;42.10;101933.81;5058877;28;45297;-62
2022/10/08 09:58:23;;;;;;;;;2.00;2.00;;;;;20.98;42.17;101935.63;5059727;28;45577;-62
2022/10/08 10:00:58;;;;;;;;;2.00;2.00;;;;;20.98;42.20;101942.66;5059505;28;45418;-63
2022/10/08 10:03:25;;;;;;;;;5.00;2.75;;;;;20.96;42.66;101933.94;5058725;28;45497;-62
2022/10/08 10:05:54;;;;;;;;;6.00;2.50;;;;;20.96;42.07;101940.09;5059156;28;45869;-64
2022/10/08 10:08:45;;;;;;;;;1.50;1.00;;;;;20.95;42.19;101935.72;5060711;28;45313;-64
2022/10/08 10:11:21;;;;;;;;;6.25;1.75;;;;;20.94;42.06;101931.38;5060909;28;45244;-64
2022/10/08 10:13:48;;;;;;;;;2.00;2.00;;;;;20.93;42.03;101934.94;5059497;28;45512;-63
2022/10/08 10:16:27;;;;;;;;;2.25;2.25;;;;;20.93;42.10;101942.00;5059352;28;45202;-64
2022/10/08 10:18:58;;;;;;;;;3.00;2.00;;;;;20.91;42.29;101936.75;5059453;28;45585;-64
2022/10/08 10:21:58;;;;;;;;;4.00;2.00;;;;;20.91;42.05;101952.56;5059459;28;45343;-64
2022/10/08 10:24:41;;;;;;;;;3.25;3.25;;;;;20.88;42.00;101947.44;5058904;28;46028;-65
2022/10/08 10:27:12;;;;;;;;;1.50;1.50;;;;;20.88;41.77;101946.56;5057885;28;45246;-61
2022/10/08 10:29:48;;;;;;;;;2.00;2.00;;;;;20.87;41.58;101951.00;5050260;28;45388;-63
2022/10/08 10:32:20;;;;;;;;;2.00;0.75;;;;;20.87;41.46;101948.38;5066034;28;45426;-64
2022/10/08 10:34:57;;;;;;;;;2.00;2.00;;;;;20.86;41.21;101946.63;5059597;28;45475;-64
2022/10/08 10:37:34;;;;;;;;;3.00;1.00;;;;;20.84;40.99;101944.03;5041642;28;45622;-62
2022/10/08 10:40:31;;;;;;;;;2.50;2.00;;;;;20.84;41.59;101945.84;5059253;28;45331;-62
2022/10/08 10:43:27;;;;;;;;;1.50;1.00;;;;;20.81;41.42;101944.19;5067339;28;45506;-64
2022/10/08 10:46:02;;;;;;;;;2.25;2.00;;;;;20.82;40.89;101952.94;5069013;28;45641;-64
2022/10/08 10:48:28;;;;;;;;;1.00;1.00;;;;;20.81;41.30;101957.38;5043803;28;45790;-64
2022/10/08 10:51:07;;;;;;;;;1.00;1.00;;;;;20.82;41.41;101948.53;5060024;28;45909;-63
2022/10/08 10:53:42;;;;;;;;;3.00;2.00;;;;;20.83;40.97;101946.75;5059073;28;45308;-61
2022/10/08 10:56:11;;;;;;;;;1.00;1.00;;;;;20.83;40.88;101949.38;5057878;28;45538;-59
2022/10/08 10:58:48;;;;;;;;;3.00;3.00;;;;;20.82;41.16;101947.66;5057543;28;45848;-60
2022/10/08 11:01:41;;;;;;;;;3.75;3.75;;;;;20.82;41.14;101961.72;5057914;28;45399;-60
2022/10/08 11:04:29;;;;;;;;;13.00;11.50;;;;;20.82;40.81;101947.66;5058017;28;45653;-60
2022/10/08 11:07:13;;;;;;;;;77.25;64.00;;;;;20.82;41.04;101952.94;5058268;28;45434;-64
2022/10/08 11:09:47;;;;;;;;;20.50;19.50;;;;;20.81;41.10;101951.22;5058047;28;45905;-60
2022/10/08 11:12:16;;;;;;;;;26.50;23.25;;;;;20.84;41.00;101951.09;5058394;28;45475;-59
2022/10/08 11:15:18;;;;;;;;;41.25;35.50;;;;;20.84;41.18;101957.22;5057503;28;45550;-57
2022/10/08 11:18:01;;;;;;;;;38.50;33.25;;;;;20.86;41.24;101957.19;5039197;28;46478;-62
2022/10/08 11:20:42;;;;;;;;;52.00;40.25;;;;;20.87;40.94;101952.75;5057634;28;45956;-63
2022/10/08 11:23:20;;;;;;;;;28.50;26.25;;;;;20.87;41.18;101953.63;5056369;28;45268;-63
2022/10/08 11:25:49;;;;;;;;;30.25;27.25;;;;;20.90;40.93;101950.84;5057917;28;45430;-60
2022/10/08 11:28:22;;;;;;;;;34.50;31.50;;;;;20.89;40.97;101954.41;5059033;28;45437;-63
2022/10/08 11:31:04;;;;;;;;;25.25;23.50;;;;;20.90;40.75;101945.56;5059987;28;46026;-63
2022/10/08 11:33:30;;;;;;;;;23.75;21.00;;;;;20.89;40.44;101941.22;5066929;28;45485;-61
2022/10/08 11:36:12;;;;;;;;;17.00;15.75;;;;;20.91;40.94;101949.94;5065749;28;45149;-60
2022/10/08 11:38:47;;;;;;;;;20.75;17.25;;;;;20.90;40.70;101948.22;5060992;28;46390;-59
2022/10/08 11:41:28;;;;;;;;;14.25;11.00;;;;;20.91;40.57;101955.22;5058176;28;45301;-60